createdAt,value
2023-02-11T00:00:04.900Z,99585.42
2023-02-11T00:04:06.559Z,99578.78
2023-02-11T00:07:31.176Z,99571.63
2023-02-11T00:11:06.385Z,99564.27
2023-02-11T00:15:04.583Z,99561.50
2023-02-11T00:18:46.341Z,99563.86
2023-02-11T00:22:08.250Z,99567.05
2023-02-11T00:26:14.626Z,99568.40
2023-02-11T00:29:38.599Z,99559.90
2023-02-11T00:33:36.763Z,99549.01
2023-02-11T00:37:24.341Z,99545.11
2023-02-11T00:41:05.366Z,99538.84
2023-02-11T00:44:27.929Z,99527.73
2023-02-11T00:48:24.162Z,99520.98
2023-02-11T00:52:05.932Z,99515.16
2023-02-11T00:55:29.970Z,99489.14
2023-02-11T00:59:30.266Z,99461.94
2023-02-11T01:03:11.576Z,99458.67
2023-02-11T01:06:53.043Z,99458.48
2023-02-11T01:10:33.851Z,99468.96
2023-02-11T01:13:58.188Z,99468.96
2023-02-11T01:17:54.687Z,99467.44
2023-02-11T01:21:16.692Z,99466.07
2023-02-11T01:24:57.650Z,99465.38
2023-02-11T01:28:52.384Z,99458.40
2023-02-11T01:32:16.418Z,99450.91
2023-02-11T01:36:13.042Z,99450.86
2023-02-11T01:39:36.371Z,99456.92
2023-02-11T01:43:36.686Z,99448.27
2023-02-11T01:47:18.638Z,99455.21
2023-02-11T01:51:26.186Z,99442.63
2023-02-11T01:55:32.584Z,99440.77
2023-02-11T01:59:23.788Z,99434.02
2023-02-11T02:03:21.812Z,99427.25
2023-02-11T02:07:18.172Z,99419.86
2023-02-11T02:10:46.459Z,99416.16
2023-02-11T02:14:19.035Z,99412.95
2023-02-11T02:18:36.190Z,99406.66
2023-02-11T02:22:36.019Z,99393.23
2023-02-11T02:26:18.860Z,99386.77
2023-02-11T02:30:05.234Z,99364.52
2023-02-11T02:33:49.289Z,99349.92
2023-02-11T02:37:38.978Z,99344.50
2023-02-11T02:41:09.576Z,99341.63
2023-02-11T02:44:58.422Z,99323.34
2023-02-11T02:48:32.504Z,99320.29
2023-02-11T02:52:03.536Z,99323.36
2023-02-11T02:56:12.901Z,99311.64
2023-02-11T02:59:42.468Z,99302.30
2023-02-11T03:03:32.245Z,99308.06
2023-02-11T03:07:06.498Z,99301.44
2023-02-11T03:10:54.595Z,99310.25
2023-02-11T03:14:20.037Z,99310.11
2023-02-11T03:18:19.403Z,99301.64
2023-02-11T03:21:44.144Z,99294.71
2023-02-11T03:25:20.957Z,99286.40
2023-02-11T03:29:16.812Z,99285.89
2023-02-11T03:32:49.132Z,99277.73
2023-02-11T03:36:45.283Z,99274.52
2023-02-11T03:40:15.139Z,99266.19
2023-02-11T03:44:05.513Z,99250.59
2023-02-11T03:47:56.430Z,99237.86
2023-02-11T03:51:22.514Z,99227.34
2023-02-11T03:54:58.346Z,99206.13
2023-02-11T03:58:33.719Z,99194.91
2023-02-11T04:02:11.259Z,99189.32
2023-02-11T04:06:08.160Z,99180.16
2023-02-11T04:09:49.535Z,99183.04
2023-02-11T04:13:11.790Z,99194.59
2023-02-11T04:17:08.479Z,99192.04
2023-02-11T04:20:50.361Z,99184.58
2023-02-11T04:24:31.429Z,99187.96
2023-02-11T04:28:12.659Z,99184.91
2023-02-11T04:31:54.637Z,99180.15
2023-02-11T04:35:17.661Z,99179.98
2023-02-11T04:38:56.226Z,99175.05
2023-02-11T04:42:52.055Z,99175.21
2023-02-11T04:46:33.189Z,99174.54
2023-02-11T04:49:55.722Z,99181.83
2023-02-11T04:53:52.198Z,99184.20
2023-02-11T04:57:14.360Z,99193.04
2023-02-11T05:01:13.817Z,99198.80
2023-02-11T05:04:36.242Z,99200.52
2023-02-11T05:08:33.071Z,99197.79
2023-02-11T05:11:55.135Z,99200.51
2023-02-11T05:15:32.719Z,99206.77
2023-02-11T05:19:10.424Z,99198.29
2023-02-11T05:22:48.156Z,99173.31
2023-02-11T05:26:25.792Z,99143.26
2023-02-11T05:30:05.112Z,99124.23
2023-02-11T05:33:43.201Z,99087.39
2023-02-11T05:37:18.727Z,99073.13
2023-02-11T05:41:16.014Z,99068.52
2023-02-11T05:44:38.310Z,99066.33
2023-02-11T05:48:16.312Z,99071.77
2023-02-11T05:51:53.692Z,99087.07
2023-02-11T05:55:31.861Z,99104.39
2023-02-11T05:59:09.025Z,99104.40
2023-02-11T06:02:46.815Z,99104.39
2023-02-11T06:06:25.164Z,99108.98
2023-02-11T06:10:02.009Z,99106.94
2023-02-11T06:13:39.577Z,99110.16
2023-02-11T06:17:17.422Z,99103.71
2023-02-11T06:20:55.200Z,99104.39
2023-02-11T06:25:01.392Z,99117.98
2023-02-11T06:28:45.594Z,99117.98
2023-02-11T06:32:13.801Z,99116.81
2023-02-11T06:35:46.224Z,99117.48
2023-02-11T06:39:45.607Z,99127.49
2023-02-11T06:43:26.758Z,99128.48
2023-02-11T06:47:07.706Z,99125.92
2023-02-11T06:50:28.376Z,99110.79
2023-02-11T06:54:09.458Z,99105.69
2023-02-11T06:57:46.473Z,99103.98
2023-02-11T07:01:25.134Z,99104.34
2023-02-11T07:05:19.662Z,99097.88
2023-02-11T07:08:45.937Z,99086.84
2023-02-11T07:12:20.244Z,99090.73
2023-02-11T07:15:58.073Z,99093.58
2023-02-11T07:19:55.838Z,99094.58
2023-02-11T07:23:38.828Z,99090.81
2023-02-11T07:27:23.103Z,99083.16
2023-02-11T07:30:50.502Z,99070.02
2023-02-11T07:34:24.032Z,99060.15
2023-02-11T07:38:22.075Z,99061.99
2023-02-11T07:42:05.920Z,99050.55
2023-02-11T07:45:29.231Z,99047.41
2023-02-11T07:49:25.722Z,99044.28
2023-02-11T07:52:47.803Z,99045.08
2023-02-11T07:56:44.259Z,99051.14
2023-02-11T08:00:14.854Z,99052.95
2023-02-11T08:04:10.160Z,99053.20
2023-02-11T08:07:34.226Z,99056.83
2023-02-11T08:11:30.985Z,99052.30
2023-02-11T08:15:12.337Z,99051.89
2023-02-11T08:18:35.916Z,99056.06
2023-02-11T08:22:12.544Z,99051.40
2023-02-11T08:26:22.895Z,99051.38
2023-02-11T08:30:05.995Z,99054.91
2023-02-11T08:33:31.071Z,99051.94
2023-02-11T08:37:09.056Z,99048.11
2023-02-11T08:41:05.270Z,99028.41
2023-02-11T08:44:29.762Z,99036.64
2023-02-11T08:48:06.737Z,99045.20
2023-02-11T08:52:04.699Z,99047.16
2023-02-11T08:55:29.486Z,99041.85
2023-02-11T08:59:06.366Z,99050.54
2023-02-11T09:02:43.115Z,99049.34
2023-02-11T09:06:22.548Z,99051.90
2023-02-11T09:09:58.404Z,99059.46
2023-02-11T09:13:56.456Z,99054.45
2023-02-11T09:17:22.418Z,99051.85
2023-02-11T09:21:07.759Z,99060.44
2023-02-11T09:24:52.592Z,99064.46
2023-02-11T09:28:33.852Z,99055.27
2023-02-11T09:31:56.211Z,99044.67
2023-02-11T09:35:34.659Z,99035.14
2023-02-11T09:39:19.911Z,99028.73
2023-02-11T09:43:07.058Z,99029.24
2023-02-11T09:46:34.927Z,99036.17
2023-02-11T09:50:14.020Z,99038.70
2023-02-11T09:54:16.319Z,99040.65
2023-02-11T09:57:38.943Z,99037.79
2023-02-11T10:01:45.450Z,99028.68
2023-02-11T10:05:56.041Z,99016.80
2023-02-11T10:10:02.905Z,99007.56
2023-02-11T10:13:59.007Z,98991.72
2023-02-11T10:17:52.590Z,98969.73
2023-02-11T10:21:33.681Z,98942.60
2023-02-11T10:25:00.270Z,98928.84
2023-02-11T10:29:01.476Z,98914.33
2023-02-11T10:32:48.506Z,98899.63
2023-02-11T10:36:16.274Z,98903.17
2023-02-11T10:40:14.337Z,98895.58
2023-02-11T10:43:37.011Z,98900.98
2023-02-11T10:47:21.270Z,98901.70
2023-02-11T10:51:14.543Z,98896.94
2023-02-11T10:54:37.963Z,98888.21
2023-02-11T10:58:25.597Z,98900.17
2023-02-11T11:01:59.154Z,98907.05
2023-02-11T11:05:49.154Z,98922.05
2023-02-11T11:09:29.605Z,98922.95
2023-02-11T11:13:28.012Z,98907.30
2023-02-11T11:17:19.720Z,98898.31
2023-02-11T11:21:02.955Z,98891.98
2023-02-11T11:24:35.284Z,98886.86
2023-02-11T11:28:28.007Z,98884.34
2023-02-11T11:31:56.989Z,98885.62
2023-02-11T11:36:07.518Z,98889.67
2023-02-11T11:39:33.694Z,98891.07
2023-02-11T11:43:23.047Z,98895.01
2023-02-11T11:46:49.733Z,98900.21
2023-02-11T11:50:47.919Z,98905.53
2023-02-11T11:54:32.758Z,98901.11
2023-02-11T11:57:55.292Z,98896.55
2023-02-11T12:02:29.159Z,98900.27
2023-02-11T12:06:29.306Z,98896.88
2023-02-11T12:10:26.206Z,98890.23
2023-02-11T12:14:03.146Z,98884.39
2023-02-11T12:18:02.745Z,98866.77
2023-02-11T12:21:53.880Z,98855.18
2023-02-11T12:25:35.877Z,98829.98
2023-02-11T12:29:26.836Z,98843.65
2023-02-11T12:33:26.075Z,98854.14
2023-02-11T12:37:07.533Z,98841.41
2023-02-11T12:41:04.705Z,98845.73
2023-02-11T12:45:09.096Z,98847.35
2023-02-11T12:49:02.376Z,98836.06
2023-02-11T12:53:02.316Z,98824.12
2023-02-11T12:57:08.103Z,98818.41
2023-02-11T13:00:42.644Z,98810.15
2023-02-11T13:04:19.865Z,98807.27
2023-02-11T13:08:25.569Z,98773.05
2023-02-11T13:11:53.642Z,98746.54
2023-02-11T13:15:33.157Z,98740.34
2023-02-11T13:19:33.664Z,98765.09
2023-02-11T13:23:18.217Z,98778.27
2023-02-11T13:27:50.412Z,98782.00
2023-02-11T13:31:35.816Z,98784.33
2023-02-11T13:34:58.850Z,98808.23
2023-02-11T13:38:37.676Z,98812.73
2023-02-11T13:42:18.034Z,98826.45
2023-02-11T13:46:15.296Z,98825.25
2023-02-11T13:49:57.946Z,98820.42
2023-02-11T13:53:20.465Z,98826.33
2023-02-11T13:57:21.758Z,98836.36
2023-02-11T14:01:07.173Z,98836.36
2023-02-11T14:04:49.125Z,98839.86
2023-02-11T14:08:31.350Z,98850.85
2023-02-11T14:12:21.593Z,98838.43
2023-02-11T14:16:28.145Z,98826.28
2023-02-11T14:20:36.476Z,98820.50
2023-02-11T14:24:17.660Z,98821.70
2023-02-11T14:28:04.144Z,98830.07
2023-02-11T14:32:22.965Z,98837.45
2023-02-11T14:35:57.038Z,98830.83
2023-02-11T14:39:53.665Z,98838.52
2023-02-11T14:43:22.642Z,98847.95
2023-02-11T14:47:19.421Z,98848.54
2023-02-11T14:50:46.623Z,98838.77
2023-02-11T14:54:39.712Z,98836.88
2023-02-11T14:58:25.159Z,98834.86
2023-02-11T15:02:22.461Z,98840.05
2023-02-11T15:06:27.785Z,98839.14
2023-02-11T15:09:52.766Z,98845.60
2023-02-11T15:13:32.915Z,98844.46
2023-02-11T15:17:26.978Z,98847.84
2023-02-11T15:21:09.183Z,98845.61
2023-02-11T15:24:35.470Z,98857.26
2023-02-11T15:28:31.973Z,98858.36
2023-02-11T15:32:22.585Z,98861.08
2023-02-11T15:35:46.543Z,98863.85
2023-02-11T15:39:41.525Z,98858.02
2023-02-11T15:43:22.890Z,98857.17
2023-02-11T15:47:09.866Z,98856.98
2023-02-11T15:50:37.122Z,98861.48
2023-02-11T15:54:31.990Z,98862.03
2023-02-11T15:58:01.418Z,98862.02
2023-02-11T16:01:52.710Z,98868.32
2023-02-11T16:05:35.498Z,98873.74
2023-02-11T16:09:03.741Z,98876.26
2023-02-11T16:12:39.062Z,98874.92
2023-02-11T16:16:34.634Z,98875.23
2023-02-11T16:20:19.952Z,98871.79
2023-02-11T16:24:01.584Z,98872.15
2023-02-11T16:27:35.505Z,98873.48
2023-02-11T16:31:21.002Z,98872.38
2023-02-11T16:35:10.434Z,98873.05
2023-02-11T16:38:34.514Z,98878.48
2023-02-11T16:42:14.312Z,98880.54
2023-02-11T16:46:08.800Z,98883.38
2023-02-11T16:49:32.529Z,98888.32
2023-02-11T16:53:10.308Z,98884.84
2023-02-11T16:56:46.323Z,98883.20
2023-02-11T17:00:28.627Z,98888.42
2023-02-11T17:04:27.697Z,98897.23
2023-02-11T17:08:10.610Z,98893.16
2023-02-11T17:11:33.121Z,98887.88
2023-02-11T17:15:11.102Z,98898.75
2023-02-11T17:19:11.571Z,98901.20
2023-02-11T17:22:34.122Z,98905.27
2023-02-11T17:26:30.723Z,98907.11
2023-02-11T17:29:55.829Z,98904.86
2023-02-11T17:33:30.437Z,98909.86
2023-02-11T17:37:10.083Z,98916.10
2023-02-11T17:40:45.829Z,98914.86
2023-02-11T17:44:44.019Z,98914.27
2023-02-11T17:48:26.304Z,98916.48
2023-02-11T17:51:49.835Z,98906.84
2023-02-11T17:55:47.492Z,98910.92
2023-02-11T17:59:34.666Z,98907.15
2023-02-11T18:02:57.876Z,98913.30
2023-02-11T18:06:36.181Z,98918.76
2023-02-11T18:10:32.852Z,98912.73
2023-02-11T18:13:54.928Z,98920.01
2023-02-11T18:17:54.669Z,98926.38
2023-02-11T18:21:35.640Z,98933.36
2023-02-11T18:25:17.996Z,98932.23
2023-02-11T18:28:59.995Z,98929.25
2023-02-11T18:32:41.237Z,98932.16
2023-02-11T18:36:23.103Z,98939.76
2023-02-11T18:39:46.654Z,98944.34
2023-02-11T18:43:43.580Z,98946.35
2023-02-11T18:47:24.851Z,98943.80
2023-02-11T18:51:11.185Z,98948.30
2023-02-11T18:54:52.760Z,98947.31
2023-02-11T18:58:15.561Z,98948.88
2023-02-11T19:01:52.801Z,98949.70
2023-02-11T19:05:33.523Z,98957.11
2023-02-11T19:09:27.529Z,98961.38
2023-02-11T19:12:51.049Z,98967.70
2023-02-11T19:16:52.300Z,98966.45
2023-02-11T19:20:33.492Z,98972.21
2023-02-11T19:23:56.221Z,98977.79
2023-02-11T19:27:54.420Z,98977.64
2023-02-11T19:31:16.818Z,98974.05
2023-02-11T19:35:13.448Z,98979.08
2023-02-11T19:38:54.724Z,98977.44
2023-02-11T19:42:36.442Z,98976.89
2023-02-11T19:46:20.394Z,98981.70
2023-02-11T19:50:05.355Z,98977.35
2023-02-11T19:53:29.752Z,98987.58
2023-02-11T19:57:09.974Z,98996.41
2023-02-11T20:00:46.351Z,98998.13
2023-02-11T20:04:25.717Z,98995.88
2023-02-11T20:08:01.658Z,99004.27
2023-02-11T20:11:59.286Z,99009.87
2023-02-11T20:15:42.043Z,99007.98
2023-02-11T20:19:23.701Z,99015.83
2023-02-11T20:22:48.822Z,99012.52
2023-02-11T20:26:44.707Z,99012.63
2023-02-11T20:30:25.544Z,99013.02
2023-02-11T20:33:48.694Z,99013.47
2023-02-11T20:37:25.309Z,99014.38
2023-02-11T20:41:04.854Z,99013.39
2023-02-11T20:44:41.516Z,99022.15
2023-02-11T20:48:18.523Z,99029.56
2023-02-11T20:52:15.103Z,99023.81
2023-02-11T20:55:56.478Z,99026.23
2023-02-11T20:59:37.750Z,99029.92
2023-02-11T21:03:00.297Z,99037.61
2023-02-11T21:06:41.466Z,99042.31
2023-02-11T21:10:15.736Z,99041.54
2023-02-11T21:13:53.109Z,99044.19
2023-02-11T21:17:32.075Z,99046.10
2023-02-11T21:21:09.501Z,99044.66
2023-02-11T21:25:05.596Z,99046.73
2023-02-11T21:28:51.324Z,99051.16
2023-02-11T21:32:17.650Z,99058.40
2023-02-11T21:35:56.143Z,99061.04
2023-02-11T21:39:29.302Z,99074.69
2023-02-11T21:43:06.840Z,99071.27
2023-02-11T21:46:44.846Z,99081.23
2023-02-11T21:50:22.165Z,99092.25
2023-02-11T21:54:19.524Z,99095.18
2023-02-11T21:57:41.478Z,99098.16
2023-02-11T22:01:25.081Z,99092.73
2023-02-11T22:05:15.613Z,99090.15
2023-02-11T22:08:57.558Z,99091.40
2023-02-11T22:12:19.451Z,99101.10
2023-02-11T22:16:18.025Z,99099.83
2023-02-11T22:20:00.024Z,99103.17
2023-02-11T22:23:41.570Z,99118.52
2023-02-11T22:27:06.289Z,99118.95
2023-02-11T22:31:00.563Z,99126.93
2023-02-11T22:34:31.160Z,99123.77
2023-02-11T22:38:00.751Z,99134.59
2023-02-11T22:41:40.993Z,99144.71
2023-02-11T22:45:15.537Z,99150.73
2023-02-11T22:48:53.390Z,99148.89
2023-02-11T22:52:49.887Z,99158.25
2023-02-11T22:56:32.521Z,99163.92
2023-02-11T22:59:55.221Z,99166.88
2023-02-11T23:03:33.672Z,99159.77
2023-02-11T23:07:10.830Z,99168.02
2023-02-11T23:10:47.831Z,99172.16
2023-02-11T23:14:45.061Z,99179.74
2023-02-11T23:18:29.059Z,99168.16
2023-02-11T23:21:53.215Z,99175.73
2023-02-11T23:25:31.134Z,99170.02
2023-02-11T23:29:07.376Z,99179.42
2023-02-11T23:32:44.782Z,99177.60
2023-02-11T23:36:41.270Z,99177.50
2023-02-11T23:40:22.372Z,99178.84
2023-02-11T23:43:49.520Z,99179.27
2023-02-11T23:47:22.703Z,99187.55
2023-02-11T23:51:00.331Z,99191.38
2023-02-11T23:54:37.836Z,99193.58
2023-02-11T23:58:37.784Z,99199.42
